Kezdőlap
METAR-TAF:

METAR-TAF

Repülőterek :

Gran Canaria, Spanyolország

Gran Canaria repülőtér

földrajzi szélesség: 27-56N, földrajzi hosszúság: 015-23W, magasság: 23 m

Jelenlegi meteorológiai megfigyelések

A jelentés 22 perccel ezelõtt készült, 01:30 UTC
Északi szél 12 kt
Hőmérséklet 17°C
Páratartalom 72%
Légköri nyomás 1025 hPa
Látótávolság 10 km, vagy több
Kevés felhő 2500 lábon

METAR: GCLP 230130Z 36012KT 9999 FEW025 17/12 Q1025 NOSIG

Idő: 01:52 (01:52 UTC)

Előrejelzés

A jelentés 5 órával és 52 perccel ezelõtt készült, 20:00 UTC
Az előrejelzés 22-én 21 óra UTC és 23-én 21 óra UTC között érvényes
Észak-északkeleti szél 15 kt
Látótávolság 10 km, vagy több
felhőtlen 1500 m magasságban, és nincs gomolyfelhõ
22-én 21 óra UTC és 23-én 10 óra UTC között ideiglenes
Északi szél 5 kt

TAF: GCLP 222000Z 2221/2321 03015KT CAVOK TX23/2314Z TN14/2306Z TEMPO 2221/2310 35005KT

Meteorológiai megfigyelések és előrejelzések több, mint 4000 repülőtéren (METAR és TAF jelentéseket).

A térképen piros és sárga pontok jelzik az elérhető meteorológiai állomásokat.

Mozgassa az egeret a pont fölött, hogy megjelenjen az állomás neve.

Azután kattintson az időjárási megfigyelések és előrejelzések megtekintéséhez.

A térkép megváltoztatása: kattintson a fekete keresztel jelölt zöld gombra ráközelítéshez, a vonallal jelölt zöld gombra távolításhoz, vagy a zöld nyilakra a szomszédos térképek eléréséhez.


METAR-TAF: